Time;durP1;ratioP1;P1;durP2;ratioP2;P2;SDS_P1;SDS_P2;PMS_P1;PMS_P2;Temp;Humidity;BMP_temperature;BMP_pressure;BME280_temperature;BME280_humidity;BME280_pressure;Samples;Min_cycle;Max_cycle;Signal;HPM_P1;HPM_P2
2022/11/28 00:00:57;;;;;;;;;11.33;7.67;;;;;10.02;80.61;100837.06;5100648;27;46937;-57
2022/11/28 00:03:23;;;;;;;;;6.33;6.00;;;;;10.03;80.59;100825.47;5100627;27;45283;-55
2022/11/28 00:05:50;;;;;;;;;8.00;6.00;;;;;10.06;80.57;100822.53;5100782;27;45451;-55
2022/11/28 00:08:15;;;;;;;;;10.00;7.00;;;;;10.08;80.77;100823.25;5100786;27;45441;-58
2022/11/28 00:10:41;;;;;;;;;9.67;9.67;;;;;10.07;80.79;100809.13;5100247;27;45454;-58
2022/11/28 00:13:06;;;;;;;;;10.00;7.33;;;;;10.12;80.72;100809.53;5100579;27;45763;-57
2022/11/28 00:15:32;;;;;;;;;10.33;7.67;;;;;10.14;80.74;100799.56;5100592;27;45281;-56
2022/11/28 00:17:57;;;;;;;;;10.33;6.00;;;;;10.16;80.60;100797.63;5100735;27;45574;-57
2022/11/28 00:20:23;;;;;;;;;10.00;7.00;;;;;10.17;80.59;100786.00;5100255;27;45173;-57
2022/11/28 00:22:48;;;;;;;;;8.33;6.33;;;;;10.18;80.62;100786.84;5100301;27;45237;-55
2022/11/28 00:25:14;;;;;;;;;10.33;7.00;;;;;10.18;80.84;100797.47;5100461;27;45230;-56
2022/11/28 00:27:39;;;;;;;;;9.33;6.33;;;;;10.22;80.72;100796.19;5100586;27;45223;-57
2022/11/28 00:30:05;;;;;;;;;15.67;9.00;;;;;10.24;80.77;100797.78;5100200;27;45258;-54
2022/11/28 00:32:30;;;;;;;;;11.67;8.33;;;;;10.24;80.68;100786.28;5100151;27;45356;-56
2022/11/28 00:34:56;;;;;;;;;9.33;7.00;;;;;10.27;80.70;100790.47;5100261;27;45229;-56
2022/11/28 00:37:21;;;;;;;;;9.33;7.00;;;;;10.29;80.51;100788.53;5100565;27;45219;-54
2022/11/28 00:39:46;;;;;;;;;10.67;9.00;;;;;10.27;80.75;100774.53;5099855;27;46124;-57
2022/11/28 00:42:12;;;;;;;;;14.00;10.33;;;;;10.32;80.42;100774.94;5100030;27;45342;-56
2022/11/28 00:44:37;;;;;;;;;10.67;8.33;;;;;10.34;80.73;100781.78;5100273;27;45414;-56
2022/11/28 00:47:02;;;;;;;;;9.33;9.33;;;;;10.29;80.66;100767.25;5099993;27;45355;-56
2022/11/28 00:49:28;;;;;;;;;6.67;6.67;;;;;10.33;80.59;100773.97;5100022;27;46033;-56
2022/11/28 00:51:53;;;;;;;;;10.33;9.67;;;;;10.28;80.69;100757.59;5099748;27;45330;-57
2022/11/28 00:54:18;;;;;;;;;11.67;10.00;;;;;10.37;80.50;100770.03;5099783;27;45463;-55
2022/11/28 00:56:44;;;;;;;;;11.00;8.00;;;;;10.34;80.74;100773.81;5100213;27;45368;-57
2022/11/28 00:59:09;;;;;;;;;10.00;6.67;;;;;10.34;80.47;100775.66;5098220;27;46209;-54
2022/11/28 01:01:37;;;;;;;;;10.00;7.33;;;;;10.36;80.44;100781.63;5098404;27;45369;-58
2022/11/28 01:04:05;;;;;;;;;7.00;7.00;;;;;10.36;80.59;100769.19;5099837;27;45333;-53
2022/11/28 01:06:44;;;;;;;;;11.67;7.00;;;;;10.37;80.15;100776.19;5099706;27;45440;-57
2022/11/28 01:09:19;;;;;;;;;7.00;6.67;;;;;10.37;80.70;100773.53;5099430;27;46217;-57
2022/11/28 01:11:47;;;;;;;;;9.33;9.33;;;;;10.37;80.50;100764.72;5099473;27;45373;-57
2022/11/28 01:14:17;;;;;;;;;13.33;6.00;;;;;10.38;80.51;100766.41;5099434;27;45388;-57
2022/11/28 01:16:42;;;;;;;;;13.33;7.67;;;;;10.38;80.49;100771.72;5099854;27;45429;-57
2022/11/28 01:19:07;;;;;;;;;9.33;9.33;;;;;10.32;80.61;100766.97;5099672;27;45348;-57
2022/11/28 01:21:34;;;;;;;;;13.33;7.67;;;;;10.33;81.19;100769.50;5099578;27;45352;-55
2022/11/28 01:23:59;;;;;;;;;11.00;7.33;;;;;10.36;80.76;100778.97;5098224;27;45436;-56
2022/11/28 01:26:28;;;;;;;;;11.67;7.00;;;;;10.37;80.68;100778.03;5098240;27;45402;-55
2022/11/28 01:28:54;;;;;;;;;11.00;9.33;;;;;10.37;80.76;100778.03;5099166;27;45273;-56
2022/11/28 01:31:25;;;;;;;;;16.33;9.33;;;;;10.39;80.89;100778.69;5099276;27;45409;-57
2022/11/28 01:33:51;;;;;;;;;10.67;7.33;;;;;10.39;80.67;100784.00;5099419;27;45444;-57
2022/11/28 01:36:18;;;;;;;;;10.00;7.00;;;;;10.35;80.81;100779.97;5098036;27;45413;-50
2022/11/28 01:38:44;;;;;;;;;12.00;8.00;;;;;10.35;80.85;100782.63;5098740;27;46189;-58
2022/11/28 01:41:11;;;;;;;;;11.33;7.00;;;;;10.37;81.06;100792.16;5099047;27;45370;-59
2022/11/28 01:43:37;;;;;;;;;9.00;6.67;;;;;10.35;80.91;100787.94;5099159;27;45282;-57
2022/11/28 01:46:04;;;;;;;;;10.33;10.33;;;;;10.37;80.92;100792.16;5098862;27;45440;-58
2022/11/28 01:48:33;;;;;;;;;8.67;6.67;;;;;10.35;80.95;100786.13;5098927;27;45355;-57
2022/11/28 01:51:01;;;;;;;;;7.67;7.00;;;;;10.36;80.73;100794.94;5097556;27;45340;-56
2022/11/28 01:53:32;;;;;;;;;9.33;7.00;;;;;10.02;80.79;100747.53;5098999;27;45379;-57
2022/11/28 01:56:13;;;;;;;;;15.00;11.00;;;;;10.39;81.09;100803.47;5097667;27;45461;-57
2022/11/28 01:58:43;;;;;;;;;8.00;7.00;;;;;10.39;81.07;100799.97;5098796;27;46417;-57
2022/11/28 02:01:09;;;;;;;;;14.67;9.33;;;;;10.40;80.73;100809.63;5098663;27;45340;-57
2022/11/28 02:03:42;;;;;;;;;9.00;7.00;;;;;10.42;81.01;100810.34;5098248;27;45226;-58
2022/11/28 02:06:09;;;;;;;;;11.00;10.00;;;;;10.42;80.98;100807.69;5099120;27;45309;-57
2022/11/28 02:08:35;;;;;;;;;7.00;6.00;;;;;10.39;80.63;100806.13;5098481;27;46039;-58
2022/11/28 02:11:22;;;;;;;;;11.00;10.00;;;;;10.43;81.28;100812.00;5098536;27;45407;-57
2022/11/28 02:13:47;;;;;;;;;14.33;9.67;;;;;10.43;80.71;100802.19;5098630;27;45529;-57
2022/11/28 02:16:31;;;;;;;;;8.00;8.00;;;;;10.44;81.30;100801.22;5098978;27;45373;-58
2022/11/28 02:19:29;;;;;;;;;15.33;10.67;;;;;10.45;80.98;100810.06;5098447;27;46993;-56
2022/11/28 02:22:04;;;;;;;;;11.00;11.00;;;;;10.46;81.28;100804.56;5015504;28;45409;-55
2022/11/28 02:24:59;;;;;;;;;11.33;7.67;;;;;10.46;81.17;100803.75;5015416;28;45379;-57
2022/11/28 02:28:01;;;;;;;;;10.67;8.67;;;;;10.47;80.94;100798.28;5015743;28;45449;-45
2022/11/28 02:30:44;;;;;;;;;14.00;7.33;;;;;10.45;80.88;100789.63;4996709;28;45512;-47
2022/11/28 02:33:26;;;;;;;;;11.67;10.00;;;;;10.47;81.18;100786.78;5015451;28;45445;-57
2022/11/28 02:36:03;;;;;;;;;18.33;12.00;;;;;10.47;81.17;100792.13;5015396;28;45481;-56
2022/11/28 02:38:55;;;;;;;;;10.67;3.00;;;;;10.37;81.39;100778.84;5015327;28;45259;-57
2022/11/28 02:41:43;;;;;;;;;18.67;12.33;;;;;10.37;81.72;100784.19;5015245;28;45531;-55
2022/11/28 02:44:23;;;;;;;;;12.67;10.33;;;;;10.42;81.03;100791.72;5015077;28;45449;-59
2022/11/28 02:47:13;;;;;;;;;10.00;8.00;;;;;10.41;81.34;100790.88;5014777;28;45415;-56
2022/11/28 02:49:57;;;;;;;;;11.67;10.33;;;;;10.40;81.55;100775.88;5015448;28;45440;-55
2022/11/28 02:53:15;;;;;;;;;10.67;9.67;;;;;10.41;81.54;100774.09;5015008;28;46223;-57
2022/11/28 02:55:43;;;;;;;;;10.67;8.00;;;;;10.39;81.81;100768.06;4955858;28;45549;-56
2022/11/28 02:58:10;;;;;;;;;12.00;10.00;;;;;10.37;81.87;100754.94;4965710;28;45541;-57
2022/11/28 03:00:38;;;;;;;;;11.00;11.00;;;;;10.33;82.10;100763.34;5015177;28;45458;-58
2022/11/28 03:03:22;;;;;;;;;17.33;10.00;;;;;10.32;82.15;100756.31;5014838;28;47136;-57
2022/11/28 03:05:57;;;;;;;;;16.67;10.67;;;;;10.32;82.08;100762.47;5014911;28;45462;-58
2022/11/28 03:08:22;;;;;;;;;11.00;9.33;;;;;10.31;82.21;100752.00;5014555;28;45338;-57
2022/11/28 03:10:57;;;;;;;;;16.00;11.00;;;;;10.31;82.64;100749.34;5015071;28;45352;-57
2022/11/28 03:13:36;;;;;;;;;13.33;12.67;;;;;10.32;82.28;100748.34;5014683;28;46484;-57
2022/11/28 03:16:13;;;;;;;;;13.33;11.00;;;;;10.32;82.41;100758.97;5013461;28;45326;-56
2022/11/28 03:18:48;;;;;;;;;12.33;10.00;;;;;10.33;82.69;100748.22;5014624;28;45540;-56
2022/11/28 03:21:39;;;;;;;;;14.00;10.33;;;;;10.33;82.44;100736.75;5014608;28;45420;-58
2022/11/28 03:24:10;;;;;;;;;10.00;10.00;;;;;10.32;82.92;100745.69;5014187;28;46530;-56
2022/11/28 03:26:56;;;;;;;;;14.00;11.67;;;;;10.32;82.48;100753.66;5014467;28;45519;-57
2022/11/28 03:29:38;;;;;;;;;19.00;11.67;;;;;10.32;82.39;100757.16;5000718;28;45547;-55
2022/11/28 03:32:08;;;;;;;;;13.67;12.33;;;;;10.35;82.67;100758.69;5094168;27;45421;-56
2022/11/28 03:34:39;;;;;;;;;16.33;11.00;;;;;10.36;82.82;100758.53;5097319;27;45251;-56
2022/11/28 03:37:13;;;;;;;;;13.33;8.67;;;;;10.35;82.63;100761.34;5097261;27;45316;-57
2022/11/28 03:39:45;;;;;;;;;11.33;8.00;;;;;10.33;82.36;100763.34;5097107;27;45334;-56
2022/11/28 03:42:19;;;;;;;;;12.33;11.33;;;;;10.34;82.60;100760.53;5097690;27;45310;-58
2022/11/28 03:44:53;;;;;;;;;11.00;10.00;;;;;10.35;82.76;100766.66;5097202;27;45412;-58
2022/11/28 03:47:18;;;;;;;;;14.67;11.00;;;;;10.36;82.82;100776.31;5096982;27;45372;-57
2022/11/28 03:49:50;;;;;;;;;10.00;7.00;;;;;10.36;82.75;100761.19;5097407;27;45237;-56
2022/11/28 03:52:28;;;;;;;;;13.00;12.33;;;;;10.38;82.54;100761.91;5097435;27;45419;-57
2022/11/28 03:55:06;;;;;;;;;15.00;11.00;;;;;10.37;82.72;100762.91;5096770;27;46370;-56
2022/11/28 03:57:35;;;;;;;;;16.00;12.00;;;;;10.38;82.61;100748.63;5096806;27;45387;-57
2022/11/28 04:00:10;;;;;;;;;13.67;12.67;;;;;10.36;82.62;100741.75;5097103;27;45311;-57
2022/11/28 04:02:46;;;;;;;;;17.00;13.00;;;;;10.39;82.61;100746.78;5097312;27;45377;-55
2022/11/28 04:05:30;;;;;;;;;15.67;11.00;;;;;10.38;82.52;100745.97;5096845;27;45372;-57
2022/11/28 04:08:23;;;;;;;;;15.33;11.33;;;;;10.39;82.47;100746.78;5096852;27;45492;-57
2022/11/28 04:11:07;;;;;;;;;13.33;11.00;;;;;10.40;82.60;100748.47;5096713;27;45397;-54
2022/11/28 04:13:51;;;;;;;;;16.33;12.00;;;;;10.41;82.40;100747.50;5097065;27;45433;-56
2022/11/28 04:16:20;;;;;;;;;21.00;12.00;;;;;10.42;82.54;100765.13;5096643;27;46121;-57
2022/11/28 04:19:09;;;;;;;;;13.00;11.33;;;;;10.42;82.51;100760.63;5096721;27;45411;-53
2022/11/28 04:21:46;;;;;;;;;17.67;13.33;;;;;10.40;82.93;100759.09;5096765;27;45419;-57
2022/11/28 04:24:17;;;;;;;;;20.33;12.00;;;;;10.44;82.75;100760.47;5096972;27;45441;-56
2022/11/28 04:26:50;;;;;;;;;10.00;9.33;;;;;10.46;83.03;100755.88;5098106;27;46394;-58
2022/11/28 04:29:19;;;;;;;;;14.33;10.33;;;;;10.47;82.81;100750.41;5100025;27;45312;-56
2022/11/28 04:31:49;;;;;;;;;10.33;10.33;;;;;10.50;82.80;100759.91;5100256;27;45299;-57
2022/11/28 04:34:17;;;;;;;;;17.00;12.67;;;;;10.52;82.67;100755.28;5100468;27;45376;-56
2022/11/28 04:36:44;;;;;;;;;15.33;10.00;;;;;10.47;82.54;100744.25;5099752;27;45405;-56
2022/11/28 04:39:17;;;;;;;;;16.33;11.33;;;;;10.46;82.75;100729.28;5099654;27;45340;-58
2022/11/28 04:41:57;;;;;;;;;18.00;15.00;;;;;10.55;82.27;100757.66;5100123;27;45368;-57
2022/11/28 04:44:32;;;;;;;;;21.00;15.00;;;;;10.56;82.78;100758.47;5100551;27;45284;-57
2022/11/28 04:46:58;;;;;;;;;14.00;11.33;;;;;10.55;82.50;100759.47;5099575;27;46374;-56
2022/11/28 04:49:26;;;;;;;;;14.33;10.00;;;;;10.53;82.20;100758.78;5100087;27;45320;-56
2022/11/28 04:52:23;;;;;;;;;11.33;11.33;;;;;10.57;82.66;100768.97;5099946;27;45271;-59
2022/11/28 04:55:00;;;;;;;;;11.67;10.00;;;;;10.56;82.91;100764.63;5100142;27;45215;-56
2022/11/28 04:57:32;;;;;;;;;14.33;10.00;;;;;10.59;82.67;100771.50;5099657;27;46350;-56
2022/11/28 05:00:00;;;;;;;;;19.00;14.33;;;;;10.59;82.43;100767.00;5099365;27;45313;-56
2022/11/28 05:02:27;;;;;;;;;15.00;11.33;;;;;10.58;82.83;100772.50;5099809;27;45346;-57
2022/11/28 05:04:54;;;;;;;;;16.00;11.00;;;;;10.60;82.63;100767.84;5099731;27;45504;-53
2022/11/28 05:07:20;;;;;;;;;18.67;10.00;;;;;10.62;82.62;100749.91;5099456;27;46439;-58
2022/11/28 05:09:46;;;;;;;;;15.00;11.00;;;;;10.55;82.32;100728.38;5099496;27;45264;-57
2022/11/28 05:12:12;;;;;;;;;17.00;11.33;;;;;10.60;82.89;100747.41;5099475;27;45488;-57
2022/11/28 05:14:37;;;;;;;;;15.33;12.33;;;;;10.63;82.28;100744.47;5099606;27;45338;-57
2022/11/28 05:17:02;;;;;;;;;12.00;11.67;;;;;10.62;82.45;100747.25;5099338;27;46050;-58
2022/11/28 05:19:28;;;;;;;;;19.00;13.67;;;;;10.64;82.42;100748.78;5099327;27;45180;-57
2022/11/28 05:21:53;;;;;;;;;18.00;13.00;;;;;10.66;82.51;100744.16;5099511;27;45282;-58
2022/11/28 05:24:19;;;;;;;;;18.33;15.67;;;;;10.67;82.63;100747.66;5099397;27;45201;-58
2022/11/28 05:26:44;;;;;;;;;12.00;10.33;;;;;10.67;82.17;100751.16;5099244;27;47096;-56
2022/11/28 05:29:10;;;;;;;;;16.00;13.33;;;;;10.67;82.09;100748.50;5099160;27;45229;-57
2022/11/28 05:31:36;;;;;;;;;15.33;12.00;;;;;10.67;82.42;100740.53;5099172;27;45400;-59
2022/11/28 05:34:02;;;;;;;;;16.33;13.33;;;;;10.68;82.26;100742.19;5099435;27;45319;-56
2022/11/28 05:36:27;;;;;;;;;13.33;13.00;;;;;10.68;82.73;100725.38;5098909;27;45865;-56
2022/11/28 05:38:52;;;;;;;;;14.33;13.33;;;;;10.70;82.36;100731.38;5098020;27;45496;-56
2022/11/28 05:41:23;;;;;;;;;16.67;14.33;;;;;10.71;82.69;100743.72;5099125;27;45404;-58
2022/11/28 05:43:49;;;;;;;;;11.67;10.33;;;;;10.71;82.21;100741.91;5099466;27;45427;-50
2022/11/28 05:46:14;;;;;;;;;13.00;11.00;;;;;10.71;82.42;100743.72;5098604;27;46963;-47
2022/11/28 05:48:40;;;;;;;;;16.67;10.33;;;;;10.74;82.50;100746.06;5098873;27;45321;-55
2022/11/28 05:51:06;;;;;;;;;16.00;12.67;;;;;10.76;82.49;100752.09;5099083;27;45349;-53
2022/11/28 05:53:32;;;;;;;;;15.33;13.00;;;;;10.74;82.24;100757.56;5099292;27;45443;-54
2022/11/28 05:55:58;;;;;;;;;12.00;12.00;;;;;10.79;82.33;100758.94;5098489;27;46160;-57
2022/11/28 05:58:23;;;;;;;;;17.67;14.00;;;;;10.80;82.45;100756.13;5098720;27;45429;-52
2022/11/28 06:00:49;;;;;;;;;14.67;12.00;;;;;10.79;82.13;100748.28;5114332;27;45577;-56
2022/11/28 06:03:14;;;;;;;;;17.67;11.00;;;;;10.77;82.03;100748.44;5099047;27;45319;-51
2022/11/28 06:05:42;;;;;;;;;20.67;15.67;;;;;10.79;82.26;100753.59;5098980;27;45337;-57
2022/11/28 06:08:08;;;;;;;;;15.00;11.00;;;;;10.82;82.23;100753.31;5098503;27;45405;-56
2022/11/28 06:10:34;;;;;;;;;12.00;9.00;;;;;10.79;82.48;100750.94;5098457;27;45421;-56
2022/11/28 06:13:01;;;;;;;;;15.33;14.67;;;;;10.84;82.16;100757.53;5098949;27;45250;-54
2022/11/28 06:15:27;;;;;;;;;15.00;14.00;;;;;10.85;82.54;100761.84;5098343;27;46237;-57
2022/11/28 06:17:52;;;;;;;;;21.00;11.33;;;;;10.86;82.57;100765.34;5098508;27;45449;-55
2022/11/28 06:20:17;;;;;;;;;14.00;11.00;;;;;10.86;82.10;100768.00;5098589;27;46180;-54
2022/11/28 06:22:45;;;;;;;;;19.00;15.33;;;;;10.87;82.22;100778.53;5098860;27;45413;-54
2022/11/28 06:25:11;;;;;;;;;12.00;10.67;;;;;10.87;82.02;100778.53;5098282;27;45604;-58
2022/11/28 06:27:36;;;;;;;;;15.33;12.33;;;;;10.88;81.90;100785.50;5098109;27;45270;-57
2022/11/28 06:30:01;;;;;;;;;18.00;13.00;;;;;10.88;81.98;100780.19;5098661;27;45713;-58
2022/11/28 06:32:27;;;;;;;;;20.33;11.67;;;;;10.90;82.06;100780.88;5098513;27;45333;-58
2022/11/28 06:34:52;;;;;;;;;12.00;12.00;;;;;10.89;81.77;100783.69;5098335;27;46049;-57
2022/11/28 06:37:17;;;;;;;;;16.00;11.33;;;;;10.89;81.83;100781.03;5098193;27;45272;-58
2022/11/28 06:39:43;;;;;;;;;11.33;10.33;;;;;10.89;81.35;100783.69;5097988;27;45290;-58
2022/11/28 06:42:08;;;;;;;;;14.33;10.67;;;;;10.90;81.66;100788.00;5098310;27;45239;-58
2022/11/28 06:44:33;;;;;;;;;18.00;15.33;;;;;10.87;81.77;100783.84;5097879;27;46247;-56
2022/11/28 06:46:59;;;;;;;;;15.00;10.33;;;;;10.84;81.72;100778.81;5097934;27;45303;-57
2022/11/28 06:49:24;;;;;;;;;16.00;13.00;;;;;10.87;81.75;100786.50;5097895;27;45509;-57
2022/11/28 06:51:49;;;;;;;;;16.00;11.00;;;;;10.87;82.16;100789.16;5098138;27;45477;-57
2022/11/28 06:54:15;;;;;;;;;14.67;10.00;;;;;10.85;81.79;100803.59;5098107;27;45186;-58
2022/11/28 06:56:40;;;;;;;;;14.00;10.67;;;;;10.80;81.40;100795.22;5097662;27;45286;-57
2022/11/28 06:59:06;;;;;;;;;15.00;11.00;;;;;10.87;81.16;100810.47;5098055;27;45262;-58
2022/11/28 07:01:33;;;;;;;;;20.33;13.33;;;;;10.72;81.59;100767.50;5098160;27;45234;-58
2022/11/28 07:03:58;;;;;;;;;14.00;10.00;;;;;10.89;81.75;100804.97;5097702;27;46962;-58
2022/11/28 07:06:25;;;;;;;;;11.67;10.33;;;;;10.88;81.40;100806.81;5097604;27;45354;-56
2022/11/28 07:08:52;;;;;;;;;17.33;13.67;;;;;10.76;81.50;100775.22;5097903;27;45498;-56
2022/11/28 07:11:21;;;;;;;;;10.67;9.67;;;;;10.86;81.28;100800.78;5097700;27;45549;-54
2022/11/28 07:13:48;;;;;;;;;10.00;8.67;;;;;10.89;81.12;100811.13;5097448;27;46448;-52
2022/11/28 07:16:19;;;;;;;;;13.00;9.33;;;;;10.86;81.08;100805.25;5097481;27;45395;-54
2022/11/28 07:18:45;;;;;;;;;11.33;7.33;;;;;10.86;80.87;100807.94;5097627;27;45384;-52
2022/11/28 07:21:13;;;;;;;;;14.67;11.67;;;;;10.77;80.90;100798.16;5097933;27;45274;-55
2022/11/28 07:23:38;;;;;;;;;8.67;8.67;;;;;10.85;81.03;100806.25;5097419;27;47031;-56
2022/11/28 07:26:04;;;;;;;;;11.00;8.33;;;;;10.84;81.03;100804.59;5097598;27;45430;-55
2022/11/28 07:28:31;;;;;;;;;11.33;7.33;;;;;10.84;81.04;100805.41;5097664;27;45397;-56
2022/11/28 07:31:03;;;;;;;;;14.67;9.33;;;;;10.86;81.05;100814.09;5097936;27;45338;-55
2022/11/28 07:33:28;;;;;;;;;10.33;6.33;;;;;10.86;80.96;100808.75;5097465;27;46318;-56
2022/11/28 07:35:57;;;;;;;;;7.00;7.00;;;;;10.84;80.81;100805.41;5095606;27;45428;-57
2022/11/28 07:38:23;;;;;;;;;11.33;8.00;;;;;10.85;80.95;100815.06;5094248;27;45385;-55
2022/11/28 07:40:49;;;;;;;;;12.67;7.33;;;;;10.87;81.04;100826.44;5096577;27;45214;-57
2022/11/28 07:43:14;;;;;;;;;8.33;6.33;;;;;10.86;80.66;100835.38;5097079;27;46504;-56
2022/11/28 07:45:39;;;;;;;;;13.33;9.00;;;;;10.87;80.61;100828.22;5096755;27;45640;-54
2022/11/28 07:48:05;;;;;;;;;12.33;7.67;;;;;10.86;80.64;100831.88;5101771;27;45285;-54
2022/11/28 07:50:30;;;;;;;;;13.00;11.33;;;;;10.84;81.00;100832.03;5094779;27;45525;-52
2022/11/28 07:52:56;;;;;;;;;9.00;7.33;;;;;10.86;80.80;100839.84;5093852;27;46283;-55
2022/11/28 07:55:22;;;;;;;;;10.67;8.67;;;;;10.85;80.44;100830.22;5094400;27;45551;-57
2022/11/28 07:57:47;;;;;;;;;11.67;7.67;;;;;10.86;80.43;100834.53;5094850;27;45489;-55
2022/11/28 08:00:13;;;;;;;;;13.00;10.00;;;;;10.87;80.69;100833.53;5094234;27;45444;-57
2022/11/28 08:02:39;;;;;;;;;12.67;9.00;;;;;10.89;80.43;100839.56;5097480;27;45668;-57
2022/11/28 08:05:04;;;;;;;;;10.33;7.33;;;;;10.88;80.44;100830.75;5097879;27;45378;-56
2022/11/28 08:07:30;;;;;;;;;11.33;7.00;;;;;10.87;80.51;100829.09;5097781;27;45440;-55
2022/11/28 08:09:56;;;;;;;;;12.00;8.00;;;;;10.89;80.13;100835.09;5098671;27;45758;-57
2022/11/28 08:12:21;;;;;;;;;10.00;6.00;;;;;10.89;80.44;100837.75;5097616;27;46050;-57
2022/11/28 08:14:46;;;;;;;;;5.67;2.33;;;;;10.89;80.03;100843.06;5098315;27;45526;-56
2022/11/28 08:17:12;;;;;;;;;8.67;6.33;;;;;10.91;80.08;100846.44;5098234;27;45547;-57
2022/11/28 08:19:37;;;;;;;;;14.00;7.00;;;;;10.93;80.13;100847.13;5098105;27;45436;-57
2022/11/28 08:22:02;;;;;;;;;10.33;7.00;;;;;10.94;79.86;100848.78;5098048;27;45482;-57
2022/11/28 08:24:28;;;;;;;;;10.67;6.33;;;;;10.96;80.09;100851.31;5097373;27;45462;-57
2022/11/28 08:26:53;;;;;;;;;10.00;8.00;;;;;10.96;79.96;100846.00;5097742;27;45812;-58
2022/11/28 08:29:18;;;;;;;;;10.00;7.00;;;;;10.98;79.50;100849.34;5097878;27;45420;-55
2022/11/28 08:31:45;;;;;;;;;8.33;6.67;;;;;11.02;79.67;100860.53;5096118;27;46933;-57
2022/11/28 08:34:11;;;;;;;;;11.33;7.00;;;;;11.03;79.88;100857.72;5097637;27;45836;-56
2022/11/28 08:36:37;;;;;;;;;15.00;11.00;;;;;11.05;79.56;100852.25;5097307;27;45467;-56
2022/11/28 08:39:03;;;;;;;;;17.67;11.00;;;;;11.09;79.20;100851.81;5097873;27;45420;-55
2022/11/28 08:41:29;;;;;;;;;17.00;11.67;;;;;11.11;79.41;100849.84;5095794;27;47391;-53
2022/11/28 08:43:54;;;;;;;;;20.00;15.00;;;;;11.15;79.58;100839.72;5097723;27;45607;-56
2022/11/28 08:46:21;;;;;;;;;12.67;12.00;;;;;11.13;78.90;100839.06;5097694;27;45415;-55
2022/11/28 08:48:49;;;;;;;;;11.67;10.00;;;;;11.18;79.08;100844.78;5097922;27;45502;-57
2022/11/28 08:51:17;;;;;;;;;11.67;9.67;;;;;11.17;79.01;100837.78;5097962;27;45353;-56
2022/11/28 08:53:43;;;;;;;;;9.67;8.00;;;;;11.18;78.61;100842.94;5097325;27;45515;-54
2022/11/28 08:56:09;;;;;;;;;12.67;8.00;;;;;11.17;78.64;100843.09;5097608;27;45525;-55
2022/11/28 08:58:35;;;;;;;;;11.33;9.67;;;;;11.17;78.38;100841.28;5097612;27;45491;-55
2022/11/28 09:01:01;;;;;;;;;17.33;12.00;;;;;11.18;78.58;100848.28;5096955;27;45437;-53
2022/11/28 09:03:26;;;;;;;;;15.00;11.00;;;;;11.18;78.81;100839.44;5097581;27;45421;-57
2022/11/28 09:05:52;;;;;;;;;19.67;14.00;;;;;11.18;78.57;100840.28;5097028;27;45575;-55
2022/11/28 09:08:19;;;;;;;;;12.33;9.00;;;;;11.17;78.89;100833.28;5097407;27;45306;-57
2022/11/28 09:10:46;;;;;;;;;14.00;11.00;;;;;11.17;79.20;100832.44;5095851;27;45519;-54
2022/11/28 09:13:13;;;;;;;;;10.33;10.00;;;;;11.19;78.63;100833.13;5095502;27;45448;-55
2022/11/28 09:15:43;;;;;;;;;12.00;11.00;;;;;11.20;78.04;100835.63;5096860;27;45673;-56
2022/11/28 09:18:11;;;;;;;;;13.00;9.00;;;;;11.18;78.12;100840.28;5097006;27;45555;-53
2022/11/28 09:20:36;;;;;;;;;10.00;8.33;;;;;11.19;78.43;100838.44;5096396;27;45535;-56
2022/11/28 09:23:02;;;;;;;;;14.00;10.00;;;;;11.19;78.70;100841.94;5097275;27;45460;-47
2022/11/28 09:25:28;;;;;;;;;17.00;10.67;;;;;11.21;78.28;100850.63;5097713;27;45377;-50
2022/11/28 09:27:53;;;;;;;;;12.00;8.00;;;;;11.22;78.29;100846.16;5098121;27;45409;-54
2022/11/28 09:30:22;;;;;;;;;15.00;11.00;;;;;11.23;78.33;100861.13;5096696;27;45540;-55
2022/11/28 09:32:48;;;;;;;;;14.33;9.67;;;;;11.22;78.23;100860.28;5096655;27;45479;-51
2022/11/28 09:35:14;;;;;;;;;11.00;8.33;;;;;11.24;78.30;100858.31;5096319;27;45530;-56
2022/11/28 09:37:40;;;;;;;;;6.33;6.00;;;;;11.14;77.77;100840.72;5096856;27;45385;-56
2022/11/28 09:40:06;;;;;;;;;6.67;6.67;;;;;11.24;77.45;100854.81;5096524;27;45983;-54
2022/11/28 09:42:40;;;;;;;;;11.67;7.00;;;;;11.21;77.61;100841.81;5096171;27;45435;-56
2022/11/28 09:45:21;;;;;;;;;14.00;10.33;;;;;11.26;77.67;100863.50;5096360;27;45547;-56
2022/11/28 09:48:00;;;;;;;;;8.33;7.67;;;;;11.28;77.81;100860.69;5096529;27;45563;-55
2022/11/28 09:50:32;;;;;;;;;16.67;6.00;;;;;11.32;77.60;100864.72;5096039;27;46223;-56
2022/11/28 09:53:11;;;;;;;;;15.33;11.33;;;;;11.35;77.96;100867.94;5096130;27;45340;-53
2022/11/28 09:55:46;;;;;;;;;14.00;9.33;;;;;11.42;77.46;100874.34;5094238;27;45499;-48
2022/11/28 09:58:27;;;;;;;;;10.67;7.00;;;;;11.47;76.68;100871.25;5096390;27;45420;-49
2022/11/28 10:01:04;;;;;;;;;13.00;8.00;;;;;11.51;76.73;100856.63;5095803;27;46188;-50
2022/11/28 10:03:32;;;;;;;;;12.33;8.00;;;;;11.55;77.14;100851.84;5095875;27;45449;-51
2022/11/28 10:06:30;;;;;;;;;12.67;10.00;;;;;11.57;76.73;100852.53;5095850;27;46013;-50
2022/11/28 10:09:36;;;;;;;;;10.00;7.00;;;;;11.63;76.41;100858.09;5096361;27;45506;-48
2022/11/28 10:12:30;;;;;;;;;6.33;5.33;;;;;11.67;76.17;100854.16;5095712;27;45468;-54
2022/11/28 10:15:24;;;;;;;;;8.67;7.00;;;;;11.74;76.50;100857.03;5064275;27;45476;-50
2022/11/28 10:18:27;;;;;;;;;10.00;7.67;;;;;12.07;75.58;100855.53;5096237;27;45510;-48
2022/11/28 10:20:59;;;;;;;;;9.33;6.00;;;;;12.08;74.62;100859.88;5096194;27;45472;-52
2022/11/28 10:23:46;;;;;;;;;6.67;6.67;;;;;12.14;74.05;100861.94;5095553;27;45429;-48
2022/11/28 10:26:21;;;;;;;;;17.00;7.00;;;;;12.20;74.71;100860.47;5094715;27;45550;-52
2022/11/28 10:28:51;;;;;;;;;8.00;7.00;;;;;12.26;74.20;100862.50;5093568;27;45451;-47
2022/11/28 10:31:41;;;;;;;;;7.00;5.33;;;;;12.37;74.44;100867.59;5095901;27;45432;-49
2022/11/28 10:34:12;;;;;;;;;12.33;8.00;;;;;12.53;74.32;100864.22;5095340;27;45435;-55
2022/11/28 10:36:47;;;;;;;;;8.33;7.00;;;;;12.69;73.51;100848.31;5095635;27;45588;-50
2022/11/28 10:39:13;;;;;;;;;13.67;8.00;;;;;13.26;72.17;100847.78;5095739;27;45427;-56
2022/11/28 10:42:11;;;;;;;;;9.67;7.00;;;;;13.85;69.76;100859.28;5095827;27;45432;-49
2022/11/28 10:45:19;;;;;;;;;6.33;4.00;;;;;13.92;68.79;100844.25;5094808;27;45445;-48
2022/11/28 10:48:43;;;;;;;;;7.33;6.33;;;;;13.82;68.68;100848.06;5094786;27;45512;-50
2022/11/28 10:51:47;;;;;;;;;6.67;6.33;;;;;14.22;67.44;100842.75;5031746;28;45519;-48
2022/11/28 10:54:24;;;;;;;;;4.33;3.67;;;;;14.79;65.96;100841.00;5032792;28;45500;-56
2022/11/28 10:56:52;;;;;;;;;8.33;5.67;;;;;14.81;65.48;100844.38;5031927;28;46278;-57
2022/11/28 10:59:40;;;;;;;;;9.67;8.67;;;;;14.69;65.54;100835.84;5031794;28;45538;-57
2022/11/28 11:02:32;;;;;;;;;7.67;6.67;;;;;14.82;65.66;100846.03;5032223;28;45447;-58
2022/11/28 11:04:58;;;;;;;;;4.33;4.33;;;;;14.90;64.69;100844.16;4972482;28;45975;-57
2022/11/28 11:07:29;;;;;;;;;12.00;4.00;;;;;15.17;64.10;100839.41;4972532;28;46124;-58
2022/11/28 11:10:05;;;;;;;;;6.33;5.67;;;;;15.48;63.36;100837.53;4972700;28;45492;-55
2022/11/28 11:12:32;;;;;;;;;8.00;5.00;;;;;15.61;62.63;100828.91;4972663;28;45699;-57
2022/11/28 11:14:58;;;;;;;;;5.33;5.33;;;;;15.31;63.23;100838.66;4973146;28;45479;-57
2022/11/28 11:17:36;;;;;;;;;8.00;3.67;;;;;15.31;63.00;100825.25;4972564;28;45487;-56
2022/11/28 11:20:38;;;;;;;;;4.00;4.00;;;;;15.09;63.61;100844.78;4972592;28;45578;-57
2022/11/28 11:23:18;;;;;;;;;4.00;4.00;;;;;14.80;63.57;100848.88;5031479;28;45418;-57
2022/11/28 11:25:57;;;;;;;;;3.00;3.00;;;;;14.68;64.27;100851.09;5031812;28;45529;-56
2022/11/28 11:28:35;;;;;;;;;6.33;4.33;;;;;14.71;64.70;100857.97;5031274;28;46139;-57
2022/11/28 11:31:04;;;;;;;;;4.00;4.00;;;;;14.66;64.26;100854.94;5031769;28;45442;-56
2022/11/28 11:33:34;;;;;;;;;4.00;2.33;;;;;14.76;64.23;100844.06;5031659;28;45462;-55